Time;durP1;ratioP1;P1;durP2;ratioP2;P2;SDS_P1;SDS_P2;PMS_P1;PMS_P2;Temp;Humidity;BMP_temperature;BMP_pressure;BME280_temperature;BME280_humidity;BME280_pressure;Samples;Min_cycle;Max_cycle;Signal;HPM_P1;HPM_P2
2022/02/20 00:02:10;;;;;;;7.25;4.50;;;;;;;11.53;100.00;99919.06;1677927;83;21119;-59
2022/02/20 00:04:40;;;;;;;7.17;3.67;;;;;;;11.67;100.00;99912.88;1669485;84;21560;-64
2022/02/20 00:07:06;;;;;;;8.68;3.90;;;;;;;11.51;100.00;99926.27;1667566;84;21068;-60
2022/02/20 00:09:36;;;;;;;7.62;4.42;;;;;;;11.66;100.00;99915.16;1667332;84;21154;-59
2022/02/20 00:12:03;;;;;;;6.97;4.12;;;;;;;11.68;100.00;99911.36;1667572;83;21600;-67
2022/02/20 00:14:30;;;;;;;7.10;4.30;;;;;;;11.60;100.00;99915.47;1668553;83;21479;-63
2022/02/20 00:16:58;;;;;;;6.87;3.60;;;;;;;11.58;100.00;99914.05;1625878;87;21146;-59
2022/02/20 00:19:24;;;;;;;7.55;4.08;;;;;;;11.79;100.00;99911.28;1632322;85;21515;-70
2022/02/20 00:21:51;;;;;;;7.85;4.35;;;;;;;11.62;100.00;99916.56;1670957;85;22349;-59
2022/02/20 00:24:19;;;;;;;7.05;4.22;;;;;;;11.61;100.00;99918.88;1671098;85;21508;-60
2022/02/20 00:26:45;;;;;;;8.10;4.40;;;;;;;11.64;100.00;99911.45;1670946;85;21047;-60
2022/02/20 00:29:12;;;;;;;9.18;4.80;;;;;;;11.43;100.00;99913.70;1628173;85;21612;-59
2022/02/20 00:31:39;;;;;;;8.25;4.87;;;;;;;11.37;100.00;99913.70;1630981;87;20998;-71
2022/02/20 00:34:05;;;;;;;11.43;5.85;;;;;;;11.48;100.00;99908.39;1632156;87;21129;-59
2022/02/20 00:36:32;;;;;;;10.63;5.25;;;;;;;11.68;100.00;99911.86;1633331;85;21474;-59
2022/02/20 00:38:58;;;;;;;9.38;5.30;;;;;;;11.41;100.00;99909.19;1632285;85;21028;-60
2022/02/20 00:41:25;;;;;;;9.98;5.03;;;;;;;11.54;100.00;99905.80;1631971;87;21655;-60
2022/02/20 00:43:52;;;;;;;8.75;4.60;;;;;;;11.42;100.00;99902.97;1631556;85;21532;-59
2022/02/20 00:46:19;;;;;;;9.53;5.15;;;;;;;11.32;100.00;99902.52;1632025;87;21190;-60
2022/02/20 00:48:45;;;;;;;10.43;5.37;;;;;;;11.02;100.00;99892.89;1632532;85;21040;-70
2022/02/20 00:51:12;;;;;;;10.50;5.85;;;;;;;11.30;100.00;99904.55;1631741;87;21036;-60
2022/02/20 00:53:39;;;;;;;8.20;5.10;;;;;;;11.22;100.00;99904.72;1631515;87;21102;-59
2022/02/20 00:56:06;;;;;;;8.03;5.35;;;;;;;11.19;100.00;99911.13;1632366;85;21169;-61
2022/02/20 00:58:35;;;;;;;7.58;5.03;;;;;;;11.27;100.00;99913.27;1632311;87;21127;-58
2022/02/20 01:01:04;;;;;;;9.98;5.03;;;;;;;11.29;100.00;99915.16;1632435;85;21004;-58
2022/02/20 01:03:31;;;;;;;9.63;5.33;;;;;;;11.00;100.00;99909.25;1632338;85;21062;-69
2022/02/20 01:05:58;;;;;;;12.37;5.95;;;;;;;11.05;100.00;99905.55;1626894;87;21118;-66
2022/02/20 01:08:24;;;;;;;7.65;5.10;;;;;;;11.48;100.00;99906.61;1631682;87;21218;-59
2022/02/20 01:10:51;;;;;;;6.97;4.70;;;;;;;11.36;100.00;99910.27;1631927;87;21169;-59
2022/02/20 01:13:18;;;;;;;8.38;5.10;;;;;;;11.32;100.00;99905.14;1631926;87;21443;-70
2022/02/20 01:15:47;;;;;;;8.88;5.25;;;;;;;11.50;100.00;99910.31;1631767;87;21474;-59
2022/02/20 01:18:13;;;;;;;6.87;4.97;;;;;;;11.43;100.00;99911.09;1631688;87;21157;-58
2022/02/20 01:20:41;;;;;;;9.40;5.92;;;;;;;11.29;100.00;99908.64;1632448;85;21104;-59
2022/02/20 01:23:08;;;;;;;7.17;5.17;;;;;;;11.39;100.00;99896.03;1631148;87;21131;-69
2022/02/20 01:25:35;;;;;;;10.55;5.22;;;;;;;11.37;100.00;99904.06;1631578;85;21599;-58
2022/02/20 01:28:03;;;;;;;8.65;5.28;;;;;;;11.42;100.00;99904.27;1600750;87;21718;-59
2022/02/20 01:30:32;;;;;;;9.30;6.12;;;;;;;11.28;100.00;99908.34;1632529;87;21610;-59
2022/02/20 01:32:58;;;;;;;8.63;5.22;;;;;;;11.48;100.00;99904.47;1630610;85;21006;-60
2022/02/20 01:35:25;;;;;;;9.18;5.30;;;;;;;11.52;100.00;99905.21;1631294;85;22900;-61
2022/02/20 01:37:52;;;;;;;9.43;5.22;;;;;;;11.58;100.00;99903.60;1632491;85;21031;-72
2022/02/20 01:40:22;;;;;;;9.18;5.67;;;;;;;11.58;100.00;99902.30;1631709;86;20975;-60
2022/02/20 01:42:49;;;;;;;8.93;5.40;;;;;;;11.61;100.00;99900.09;1632822;85;21970;-63
2022/02/20 01:45:16;;;;;;;8.70;5.30;;;;;;;11.65;100.00;99897.89;1653087;85;20989;-59
2022/02/20 01:47:43;;;;;;;9.13;5.22;;;;;;;11.32;100.00;99889.48;1670413;85;21793;-60
2022/02/20 01:50:11;;;;;;;8.90;5.17;;;;;;;11.38;100.00;99887.40;1671333;85;21088;-60
2022/02/20 01:52:40;;;;;;;10.55;6.42;;;;;;;11.67;100.00;99884.16;1672301;85;21091;-59
2022/02/20 01:55:07;;;;;;;10.08;5.37;;;;;;;11.65;100.00;99889.55;1669786;85;21013;-63
2022/02/20 01:57:41;;;;;;;9.53;5.65;;;;;;;11.84;100.00;99888.00;1625043;87;21166;-59
2022/02/20 02:00:14;;;;;;;11.08;5.40;;;;;;;11.66;100.00;99885.13;1624208;86;21238;-60
2022/02/20 02:02:44;;;;;;;9.33;5.30;;;;;;;11.77;100.00;99884.55;1624953;87;21064;-72
2022/02/20 02:05:30;;;;;;;9.05;5.58;;;;;;;11.85;100.00;99877.84;1587885;88;21044;-70
2022/02/20 02:07:57;;;;;;;10.13;5.75;;;;;;;11.83;100.00;99875.95;1616726;87;21216;-62
2022/02/20 02:10:26;;;;;;;10.55;6.20;;;;;;;11.71;100.00;99880.64;1658867;86;21098;-68
2022/02/20 02:13:11;;;;;;;11.40;6.55;;;;;;;11.42;100.00;99883.89;1659805;86;21096;-59
2022/02/20 02:15:50;;;;;;;8.18;5.53;;;;;;;11.51;100.00;99885.81;1658518;86;21616;-72
2022/02/20 02:18:21;;;;;;;11.00;6.35;;;;;;;11.61;100.00;99882.33;1658412;85;21090;-59
2022/02/20 02:21:06;;;;;;;10.32;6.33;;;;;;;11.77;100.00;99883.23;1637253;86;21161;-61
2022/02/20 02:23:50;;;;;;;10.90;7.15;;;;;;;11.74;100.00;99881.02;1659228;86;21166;-74
2022/02/20 02:26:35;;;;;;;10.40;6.03;;;;;;;11.76;100.00;99879.03;1660063;86;21152;-59
2022/02/20 02:29:15;;;;;;;10.85;6.42;;;;;;;11.54;100.00;99888.83;1659527;86;20956;-70
2022/02/20 02:31:43;;;;;;;12.85;8.28;;;;;;;11.33;100.00;99885.89;1659693;86;21008;-62
2022/02/20 02:34:09;;;;;;;12.45;7.25;;;;;;;11.29;100.00;99883.38;1659499;85;21543;-72
2022/02/20 02:36:36;;;;;;;12.73;7.00;;;;;;;11.32;100.00;99881.65;1658688;86;20971;-61
2022/02/20 02:39:04;;;;;;;10.78;6.78;;;;;;;11.26;100.00;99883.77;1659569;86;21161;-61
2022/02/20 02:41:31;;;;;;;12.50;7.25;;;;;;;11.52;100.00;99884.83;1658867;86;21081;-64
2022/02/20 02:43:58;;;;;;;12.13;7.30;;;;;;;11.59;100.00;99884.31;1660006;86;21578;-61
2022/02/20 02:46:27;;;;;;;10.90;7.70;;;;;;;11.60;100.00;99883.34;1659824;86;21078;-58
2022/02/20 02:48:54;;;;;;;13.78;8.63;;;;;;;11.59;100.00;99886.45;1659935;86;21639;-58
2022/02/20 02:51:22;;;;;;;13.95;7.97;;;;;;;11.79;100.00;99882.55;1659563;86;21008;-58
2022/02/20 02:53:49;;;;;;;12.18;7.65;;;;;;;11.67;100.00;99888.07;1659002;86;21028;-61
2022/02/20 02:56:17;;;;;;;11.05;7.97;;;;;;;11.70;100.00;99891.56;1659252;86;21121;-59
2022/02/20 02:58:44;;;;;;;12.95;7.17;;;;;;;11.59;100.00;99890.37;1659553;86;21181;-60
2022/02/20 03:01:15;;;;;;;13.05;7.87;;;;;;;11.68;100.00;99887.06;1658336;86;21575;-63
2022/02/20 03:03:43;;;;;;;12.13;7.58;;;;;;;11.86;100.00;99890.43;1659751;85;21117;-65
2022/02/20 03:06:11;;;;;;;14.60;8.03;;;;;;;11.62;100.00;99886.53;1666015;85;20945;-60
2022/02/20 03:08:38;;;;;;;14.73;8.33;;;;;;;11.65;100.00;99888.76;1666625;85;20964;-74
2022/02/20 03:11:05;;;;;;;15.45;8.85;;;;;;;11.82;100.00;99892.60;1665241;85;21502;-63
2022/02/20 03:13:32;;;;;;;11.25;7.97;;;;;;;11.86;100.00;99886.52;1665930;85;21079;-60
2022/02/20 03:16:00;;;;;;;13.75;8.60;;;;;;;11.75;100.00;99890.48;1663784;85;21176;-59
2022/02/20 03:18:30;;;;;;;14.53;8.53;;;;;;;12.09;100.00;99884.30;1663372;85;21121;-60
2022/02/20 03:20:57;;;;;;;15.43;8.43;;;;;;;12.01;100.00;99892.34;1664615;85;21507;-60
2022/02/20 03:23:24;;;;;;;12.58;8.60;;;;;;;12.02;100.00;99891.33;1664760;85;21076;-61
2022/02/20 03:25:51;;;;;;;16.82;8.30;;;;;;;11.73;100.00;99893.78;1661561;85;21023;-59
2022/02/20 03:28:18;;;;;;;13.10;8.85;;;;;;;11.65;100.00;99893.98;1662580;85;21195;-61
2022/02/20 03:30:46;;;;;;;14.07;9.18;;;;;;;11.67;100.00;99894.09;1624501;86;21512;-63
2022/02/20 03:33:14;;;;;;;12.70;8.28;;;;;;;11.51;100.00;99892.34;1667977;85;22265;-59
2022/02/20 03:35:41;;;;;;;13.30;9.80;;;;;;;11.07;100.00;99895.73;1625605;87;21127;-60
2022/02/20 03:38:10;;;;;;;15.10;9.75;;;;;;;10.84;100.00;99902.55;1605258;87;21095;-60
2022/02/20 03:40:38;;;;;;;14.70;9.50;;;;;;;10.99;100.00;99905.54;1624658;87;21165;-60
2022/02/20 03:43:05;;;;;;;13.48;8.98;;;;;;;11.00;100.00;99900.63;1628139;87;21027;-74
2022/02/20 03:45:33;;;;;;;13.32;8.43;;;;;;;10.91;100.00;99907.31;1632572;85;21138;-60
2022/02/20 03:48:01;;;;;;;17.87;10.13;;;;;;;10.81;100.00;99900.33;1631838;87;21118;-59
2022/02/20 03:50:30;;;;;;;16.35;10.08;;;;;;;10.39;100.00;99898.19;1631787;85;20968;-64
2022/02/20 03:52:58;;;;;;;12.90;9.43;;;;;;;10.45;100.00;99901.81;1632213;85;21171;-60
2022/02/20 03:55:27;;;;;;;17.80;9.93;;;;;;;10.47;100.00;99904.55;1632009;87;21031;-59
2022/02/20 03:57:55;;;;;;;18.80;9.80;;;;;;;10.46;100.00;99908.16;1631591;87;21709;-73
2022/02/20 04:00:25;;;;;;;16.02;10.43;;;;;;;10.43;100.00;99904.63;1642895;79;21528;-60
2022/02/20 04:02:55;;;;;;;17.50;10.80;;;;;;;10.48;100.00;99908.75;1728211;82;21161;-60
2022/02/20 04:05:21;;;;;;;19.12;10.30;;;;;;;10.34;100.00;99904.94;1705597;84;22385;-59
2022/02/20 04:07:50;;;;;;;15.35;10.38;;;;;;;10.61;100.00;99904.64;1727325;82;21072;-61
2022/02/20 04:10:18;;;;;;;16.80;9.73;;;;;;;10.85;100.00;99910.67;1704448;83;21524;-60
2022/02/20 04:12:46;;;;;;;13.80;10.00;;;;;;;10.61;100.00;99913.77;1727724;82;21991;-67
2022/02/20 04:15:15;;;;;;;17.17;10.60;;;;;;;10.39;100.00;99910.41;1704453;84;21079;-62
2022/02/20 04:17:47;;;;;;;17.82;10.98;;;;;;;10.59;100.00;99913.14;1727673;82;21442;-60
2022/02/20 04:20:18;;;;;;;18.92;10.63;;;;;;;10.43;100.00;99916.34;1704944;84;21069;-60
2022/02/20 04:22:45;;;;;;;20.27;11.53;;;;;;;10.55;100.00;99922.34;1727249;82;28775;-58
2022/02/20 04:25:14;;;;;;;18.40;11.63;;;;;;;10.57;100.00;99917.72;1701827;82;21039;-58
2022/02/20 04:27:40;;;;;;;21.52;11.85;;;;;;;10.59;100.00;99913.14;1705270;84;21084;-66
2022/02/20 04:30:09;;;;;;;14.70;10.30;;;;;;;10.57;100.00;99920.33;1726937;82;21452;-59
2022/02/20 04:32:36;;;;;;;18.32;11.73;;;;;;;10.42;100.00;99923.86;1704870;84;21138;-60
2022/02/20 04:35:06;;;;;;;19.05;12.65;;;;;;;10.44;100.00;99927.06;1702870;82;21449;-60
2022/02/20 04:37:34;;;;;;;16.95;10.72;;;;;;;10.16;100.00;99931.45;1705046;84;21044;-60
2022/02/20 04:40:05;;;;;;;20.72;10.90;;;;;;;10.19;100.00;99934.95;1727001;82;21015;-77
2022/02/20 04:42:33;;;;;;;18.35;10.58;;;;;;;10.18;100.00;99944.58;1704754;83;22185;-62
2022/02/20 04:45:02;;;;;;;22.10;11.65;;;;;;;10.21;100.00;99947.31;1726446;81;20962;-62
2022/02/20 04:47:31;;;;;;;19.57;10.40;;;;;;;10.35;100.00;99936.03;1704740;83;21002;-64
2022/02/20 04:49:58;;;;;;;16.37;10.90;;;;;;;10.29;100.00;99942.48;1727101;82;21085;-78
2022/02/20 04:52:39;;;;;;;20.97;10.90;;;;;;;10.16;100.00;99941.87;1704801;83;20935;-66
2022/02/20 04:55:08;;;;;;;18.32;10.32;;;;;;;10.36;100.00;99942.84;1726895;81;21841;-61
2022/02/20 04:57:37;;;;;;;17.45;10.23;;;;;;;10.73;100.00;99943.51;1705299;83;21050;-74
2022/02/20 05:00:07;;;;;;;17.98;9.80;;;;;;;10.86;100.00;99946.68;1726992;82;21008;-64
2022/02/20 05:02:36;;;;;;;17.73;10.38;;;;;;;10.78;100.00;99947.64;1723436;82;22042;-59
2022/02/20 05:05:04;;;;;;;19.98;9.68;;;;;;;10.88;100.00;99955.13;1723728;82;21505;-61
2022/02/20 05:07:31;;;;;;;16.70;9.95;;;;;;;10.75;100.00;99957.14;1727291;81;21512;-61
2022/02/20 05:09:57;;;;;;;16.50;10.20;;;;;;;10.96;100.00;99958.88;1724942;82;21025;-63
2022/02/20 05:12:24;;;;;;;20.10;10.65;;;;;;;11.09;100.00;99958.13;1730050;81;21093;-60
2022/02/20 05:14:53;;;;;;;13.60;8.38;;;;;;;11.32;100.00;99963.05;1701158;84;21054;-73
2022/02/20 05:17:31;;;;;;;14.10;8.93;;;;;;;11.44;100.00;99965.42;1713207;83;21547;-75
2022/02/20 05:20:00;;;;;;;20.37;9.50;;;;;;;11.42;100.00;99965.60;1713148;83;21057;-60
2022/02/20 05:22:27;;;;;;;17.95;9.65;;;;;;;11.53;100.00;99964.23;1713821;83;21003;-59
2022/02/20 05:24:56;;;;;;;15.93;8.95;;;;;;;11.63;100.00;99975.12;1702642;82;21580;-63
2022/02/20 05:27:24;;;;;;;18.02;9.43;;;;;;;11.71;100.00;99970.22;1699273;82;21024;-59
2022/02/20 05:29:52;;;;;;;16.42;8.40;;;;;;;11.96;100.00;99961.84;1669655;85;21038;-60
2022/02/20 05:32:26;;;;;;;17.15;9.25;;;;;;;12.10;100.00;99956.95;1727404;82;21149;-59
2022/02/20 05:35:06;;;;;;;17.60;9.43;;;;;;;12.34;100.00;99964.17;1727353;81;20966;-60
2022/02/20 05:37:49;;;;;;;;;;;;;;;12.39;100.00;99975.36;1705147;82;21081;-60
2022/02/20 05:40:19;;;;;;;15.23;9.13;;;;;;;12.60;100.00;99975.63;1670727;84;20587;-62
2022/02/20 05:42:52;;;;;;;17.55;8.68;;;;;;;12.87;100.00;99965.41;1686807;83;21445;-75
2022/02/20 05:45:20;;;;;;;15.23;8.58;;;;;;;13.01;100.00;99971.94;1701258;82;21130;-60
2022/02/20 05:47:47;;;;;;;14.93;8.60;;;;;;;12.94;100.00;99985.03;1704558;82;21012;-60
2022/02/20 05:50:14;;;;;;;13.78;8.23;;;;;;;13.45;100.00;99981.69;1707064;82;21027;-74
2022/02/20 05:52:43;;;;;;;16.67;7.72;;;;;;;13.80;99.67;99985.23;1668140;84;21464;-59
2022/02/20 05:55:11;;;;;;;16.10;8.35;;;;;;;13.74;99.57;99988.17;1723198;81;21096;-61
2022/02/20 05:57:49;;;;;;;16.90;8.47;;;;;;;14.04;98.43;99983.15;1723695;81;22217;-61
2022/02/20 06:00:22;;;;;;;16.52;8.28;;;;;;;14.39;91.01;99984.50;1726896;81;21594;-61
2022/02/20 06:02:55;;;;;;;17.03;9.13;;;;;;;14.39;91.01;99984.50;1705070;81;20983;-63
2022/02/20 06:05:24;;;;;;;14.63;7.47;;;;;;;14.85;78.88;99981.51;1702730;83;21971;-62
2022/02/20 06:08:09;;;;;;;19.93;7.53;;;;;;;14.91;73.72;99993.74;1674955;84;21025;-63
2022/02/20 06:10:49;;;;;;;15.83;7.77;;;;;;;14.69;73.82;99994.66;1705163;83;21181;-64
2022/02/20 06:13:21;;;;;;;17.93;7.83;;;;;;;14.89;71.38;99988.41;1689457;83;21642;-64
2022/02/20 06:15:52;;;;;;;15.93;6.75;;;;;;;15.40;69.63;99989.88;1673471;84;21490;-63
2022/02/20 06:18:23;;;;;;;12.78;6.90;;;;;;;15.70;62.99;99989.41;1677614;84;21694;-62
2022/02/20 06:20:51;;;;;;;13.27;7.53;;;;;;;15.81;59.32;99990.48;1673246;84;21120;-63
2022/02/20 06:23:26;;;;;;;14.93;7.40;;;;;;;16.00;57.96;99990.70;1649807;84;21925;-63
2022/02/20 06:26:10;;;;;;;19.00;6.73;;;;;;;16.51;55.12;99992.42;1697334;83;21780;-64
2022/02/20 06:28:37;;;;;;;14.53;7.47;;;;;;;16.90;53.81;99995.45;1695813;83;21645;-64
2022/02/20 06:31:04;;;;;;;16.03;6.93;;;;;;;16.90;53.81;99995.45;1700116;83;22182;-66
2022/02/20 06:33:33;;;;;;;14.83;6.67;;;;;;;17.39;52.00;99984.06;1671789;84;22236;-63
2022/02/20 06:36:01;;;;;;;13.20;6.97;;;;;;;17.56;50.71;99987.53;1694646;83;21792;-72
2022/02/20 06:38:30;;;;;;;17.20;6.33;;;;;;;17.91;50.26;99983.44;1697470;83;21475;-66
2022/02/20 06:40:57;;;;;;;18.93;6.03;;;;;;;18.35;48.72;99985.47;1702851;82;21510;-77
2022/02/20 06:43:28;;;;;;;13.78;6.10;;;;;;;18.81;46.57;99984.31;1674548;84;21382;-66
2022/02/20 06:46:12;;;;;;;11.77;5.00;;;;;;;19.26;45.43;99975.89;1653561;85;21179;-65
2022/02/20 06:48:40;;;;;;;11.17;5.33;;;;;;;19.55;44.89;99979.92;1610738;83;21483;-66
2022/02/20 06:51:08;;;;;;;8.90;4.63;;;;;;;20.16;43.55;99979.18;1695990;83;20946;-66
2022/02/20 06:53:49;;;;;;;9.33;4.42;;;;;;;20.27;42.06;99980.06;1698277;83;22419;-68
2022/02/20 06:56:17;;;;;;;8.53;4.30;;;;;;;20.43;41.41;99977.52;1698878;83;21251;-66
2022/02/20 06:58:44;;;;;;;8.60;4.10;;;;;;;20.23;40.78;99971.53;1696124;83;21101;-68
2022/02/20 07:01:10;;;;;;;11.50;4.23;;;;;;;20.42;40.21;99982.02;1697280;83;21846;-67
2022/02/20 07:03:38;;;;;;;11.00;4.83;;;;;;;20.62;40.02;99986.14;1725169;81;21489;-69
2022/02/20 07:06:05;;;;;;;8.93;4.63;;;;;;;20.83;38.83;99981.73;1728175;81;21098;-67
2022/02/20 07:08:32;;;;;;;7.20;3.53;;;;;;;20.78;38.25;99983.58;1723420;81;21539;-72
2022/02/20 07:10:58;;;;;;;8.07;4.20;;;;;;;20.57;38.03;99983.47;1725315;81;21005;-71
2022/02/20 07:13:25;;;;;;;7.70;3.70;;;;;;;20.51;37.95;99984.48;1727431;81;21088;-69
2022/02/20 07:15:52;;;;;;;8.03;4.07;;;;;;;20.74;38.23;99979.32;1723912;81;22419;-70
2022/02/20 07:18:19;;;;;;;14.00;3.77;;;;;;;21.05;37.45;99977.61;1727712;81;21069;-69
2022/02/20 07:20:45;;;;;;;7.00;3.30;;;;;;;19.88;38.37;99976.81;1726716;81;21019;-68
2022/02/20 07:23:13;;;;;;;6.93;3.37;;;;;;;19.54;38.36;99976.19;1726415;81;20951;-68
2022/02/20 07:25:41;;;;;;;7.17;3.10;;;;;;;20.92;37.00;99974.66;1725540;81;21023;-69
2022/02/20 07:28:09;;;;;;;7.27;3.50;;;;;;;21.05;36.11;99969.66;1722206;81;22570;-69
2022/02/20 07:30:36;;;;;;;5.87;3.60;;;;;;;20.95;36.16;99972.78;1698141;81;21088;-68
2022/02/20 07:33:14;;;;;;;7.07;3.30;;;;;;;21.21;36.04;99985.09;1727051;81;21081;-68
2022/02/20 07:35:40;;;;;;;6.03;3.20;;;;;;;21.32;35.35;99985.92;1724742;81;21034;-66
2022/02/20 07:38:07;;;;;;;6.73;3.03;;;;;;;21.53;34.42;99976.21;1727015;81;21147;-72
2022/02/20 07:40:34;;;;;;;6.67;3.07;;;;;;;21.66;34.37;99982.32;1726586;81;21081;-65
2022/02/20 07:43:00;;;;;;;6.87;3.30;;;;;;;21.62;34.02;99980.72;1725228;81;20879;-67
2022/02/20 07:45:27;;;;;;;5.47;3.33;;;;;;;21.90;33.69;99990.59;1727270;81;21032;-69
2022/02/20 07:47:59;;;;;;;6.43;2.57;;;;;;;22.14;34.00;99984.79;1725554;81;21096;-70
2022/02/20 07:50:30;;;;;;;7.80;2.90;;;;;;;22.05;32.55;99985.30;1727384;81;21167;-68
2022/02/20 07:52:58;;;;;;;4.93;2.53;;;;;;;22.13;31.98;99979.19;1722952;81;20993;-69
2022/02/20 07:55:27;;;;;;;7.93;3.27;;;;;;;22.03;32.01;99980.77;1726296;81;21072;-68
2022/02/20 07:57:54;;;;;;;7.37;2.73;;;;;;;22.24;31.52;99972.84;1726121;81;21477;-67
2022/02/20 08:00:22;;;;;;;5.30;2.00;;;;;;;21.95;31.81;99986.61;1725217;82;21543;-66
2022/02/20 08:02:51;;;;;;;5.33;2.47;;;;;;;21.92;31.12;99977.84;1717317;81;21169;-67
2022/02/20 08:05:17;;;;;;;4.93;2.17;;;;;;;21.91;31.07;99982.10;1674079;84;21073;-69
2022/02/20 08:07:45;;;;;;;5.90;2.80;;;;;;;21.84;30.54;99971.20;1703587;83;21074;-69
2022/02/20 08:10:12;;;;;;;6.37;2.40;;;;;;;21.29;31.17;99974.51;1674401;84;21037;-67
2022/02/20 08:12:40;;;;;;;5.00;2.60;;;;;;;20.95;32.01;99981.56;1699985;83;21057;-68
2022/02/20 08:15:08;;;;;;;4.57;2.00;;;;;;;21.14;31.98;99976.61;1693854;83;21149;-68
2022/02/20 08:17:47;;;;;;;5.33;2.63;;;;;;;21.27;31.73;99987.24;1696250;83;21601;-68
2022/02/20 08:20:14;;;;;;;5.93;2.73;;;;;;;21.43;31.82;99984.92;1696233;83;21063;-69
2022/02/20 08:22:42;;;;;;;5.83;2.60;;;;;;;21.40;31.98;99994.72;1696299;83;21087;-69
2022/02/20 08:25:10;;;;;;;5.73;2.20;;;;;;;21.62;31.96;99982.58;1700998;82;21184;-67
2022/02/20 08:27:38;;;;;;;4.07;2.00;;;;;;;21.99;30.67;99990.33;1702397;82;21149;-67
2022/02/20 08:30:08;;;;;;;5.37;2.70;;;;;;;21.79;30.26;99985.02;1701215;82;21499;-67
2022/02/20 08:32:35;;;;;;;3.90;2.00;;;;;;;21.53;30.68;99996.89;1701212;82;21032;-67
2022/02/20 08:35:08;;;;;;;5.40;2.63;;;;;;;21.67;30.90;99997.20;1701226;82;20929;-68
2022/02/20 08:37:33;;;;;;;6.13;2.50;;;;;;;21.96;31.47;100006.77;1702028;82;21117;-68
2022/02/20 08:40:02;;;;;;;5.00;2.40;;;;;;;22.44;30.07;99990.08;1671699;84;21149;-67
2022/02/20 08:42:28;;;;;;;5.30;2.40;;;;;;;22.30;29.66;100007.61;1695207;83;21604;-68
2022/02/20 08:44:55;;;;;;;6.83;3.10;;;;;;;22.11;29.96;100012.09;1697032;83;20999;-69
2022/02/20 08:47:22;;;;;;;5.57;2.03;;;;;;;22.20;30.36;100013.73;1661125;84;21162;-65
2022/02/20 08:49:48;;;;;;;6.10;2.30;;;;;;;22.06;29.67;100018.73;1696990;83;21089;-66
2022/02/20 08:52:15;;;;;;;7.93;3.53;;;;;;;22.05;29.26;100009.72;1701191;83;21155;-67
2022/02/20 08:54:42;;;;;;;6.03;2.20;;;;;;;22.02;29.49;100013.69;1701225;83;21058;-68
2022/02/20 08:57:09;;;;;;;5.00;2.40;;;;;;;21.95;29.69;100018.45;1702401;83;21023;-69
2022/02/20 08:59:36;;;;;;;4.27;1.93;;;;;;;22.16;29.33;100014.50;1704434;83;21144;-69
2022/02/20 09:02:03;;;;;;;4.50;1.80;;;;;;;22.25;28.91;100015.59;1703953;83;21177;-69
2022/02/20 09:04:30;;;;;;;4.93;1.97;;;;;;;21.86;29.04;100018.19;1705914;83;21221;-67
2022/02/20 09:06:57;;;;;;;4.30;1.70;;;;;;;21.54;29.36;100031.63;1703151;83;21008;-69
2022/02/20 09:09:24;;;;;;;5.93;2.23;;;;;;;21.33;29.68;100035.30;1702124;83;21014;-67
2022/02/20 09:11:52;;;;;;;5.13;2.43;;;;;;;20.89;30.57;100031.59;1700397;83;21076;-68
2022/02/20 09:14:18;;;;;;;5.17;2.27;;;;;;;20.87;31.20;100027.06;1704180;83;21129;-68
2022/02/20 09:16:46;;;;;;;3.93;2.03;;;;;;;21.06;31.17;100028.75;1674769;85;21163;-68
2022/02/20 09:19:13;;;;;;;5.20;1.63;;;;;;;20.94;30.43;100026.84;1706754;83;21002;-68
2022/02/20 09:21:40;;;;;;;5.53;1.40;;;;;;;20.91;30.79;100030.83;1707188;83;21106;-67
2022/02/20 09:24:08;;;;;;;5.87;1.63;;;;;;;20.99;30.74;100036.17;1707615;83;21067;-69
2022/02/20 09:26:34;;;;;;;3.00;1.30;;;;;;;20.95;30.10;100038.53;1708627;83;21016;-67
2022/02/20 09:29:00;;;;;;;5.00;1.60;;;;;;;20.80;30.42;100021.22;1706359;83;22064;-67
2022/02/20 09:31:27;;;;;;;3.77;1.57;;;;;;;20.63;30.38;100042.02;1708312;83;21599;-68
2022/02/20 09:33:53;;;;;;;4.63;1.50;;;;;;;20.44;30.82;100040.00;1707456;83;21113;-69
2022/02/20 09:36:20;;;;;;;2.30;1.00;;;;;;;20.22;30.99;100042.20;1707758;83;21477;-67
2022/02/20 09:38:46;;;;;;;3.20;1.10;;;;;;;20.18;30.42;100035.29;1708439;83;21210;-67
2022/02/20 09:41:13;;;;;;;2.50;0.83;;;;;;;20.07;30.56;100032.80;1707434;83;22140;-70
2022/02/20 09:43:41;;;;;;;4.17;1.20;;;;;;;20.54;30.57;100028.99;1706566;83;22351;-66
2022/02/20 09:46:08;;;;;;;3.43;1.30;;;;;;;20.98;30.18;100028.72;1708625;83;20940;-67
2022/02/20 09:48:35;;;;;;;3.87;1.33;;;;;;;20.82;29.91;100022.54;1703152;83;21016;-67
2022/02/20 09:51:01;;;;;;;3.50;1.03;;;;;;;20.45;29.98;100028.35;1696721;83;21079;-69
2022/02/20 09:53:28;;;;;;;2.83;1.10;;;;;;;20.14;30.73;100024.94;1694892;83;21131;-67
2022/02/20 09:55:55;;;;;;;3.83;1.00;;;;;;;20.27;30.10;100015.00;1699249;83;21170;-68
2022/02/20 09:58:22;;;;;;;2.77;1.00;;;;;;;20.32;29.81;100031.70;1697197;83;20980;-68
2022/02/20 10:00:56;;;;;;;4.87;1.60;;;;;;;20.08;29.89;100029.92;1698997;83;21085;-66
2022/02/20 10:03:31;;;;;;;3.43;0.90;;;;;;;20.07;29.72;100016.92;1710929;82;21026;-65
2022/02/20 10:06:00;;;;;;;3.57;1.50;;;;;;;19.85;29.35;100022.27;1726391;82;21067;-71
2022/02/20 10:08:44;;;;;;;3.42;1.20;;;;;;;19.35;29.67;100027.27;1726710;82;20966;-70
2022/02/20 10:11:27;;;;;;;4.47;1.53;;;;;;;19.19;30.31;100023.11;1699168;82;21049;-65
2022/02/20 10:14:05;;;;;;;2.87;0.80;;;;;;;19.31;30.05;100024.83;1702034;82;21014;-67
2022/02/20 10:16:32;;;;;;;2.10;0.80;;;;;;;19.25;30.50;100029.80;1701667;82;20986;-68
2022/02/20 10:19:00;;;;;;;2.73;0.93;;;;;;;19.00;30.24;100023.66;1703034;82;22197;-67
2022/02/20 10:21:33;;;;;;;3.17;0.80;;;;;;;18.74;30.58;100026.45;1669665;82;22254;-68
2022/02/20 10:24:19;;;;;;;2.27;1.00;;;;;;;18.65;31.23;100024.20;1677729;82;36329;-71
2022/02/20 10:27:08;;;;;;;3.50;1.03;;;;;;;19.18;30.81;100006.19;1702798;82;21129;-67
2022/02/20 10:30:18;;;;;;;2.43;0.90;;;;;;;19.62;30.17;100005.68;1671025;84;21117;-69
2022/02/20 10:32:47;;;;;;;2.33;0.87;;;;;;;20.25;28.63;100008.62;1725884;81;21155;-68
2022/02/20 10:35:16;;;;;;;2.23;0.70;;;;;;;20.25;28.63;100008.62;1721517;81;20993;-68
2022/02/20 10:37:43;;;;;;;2.50;0.70;;;;;;;19.88;28.43;100008.03;1729608;81;21066;-68
2022/02/20 10:40:30;;;;;;;2.80;0.83;;;;;;;19.77;28.64;100007.66;1727225;81;21799;-67
2022/02/20 10:42:59;;;;;;;2.00;0.70;;;;;;;19.15;29.41;100020.69;1683955;83;21192;-72
2022/02/20 10:45:38;;;;;;;4.17;1.00;;;;;;;18.91;30.58;100016.68;1674790;84;21195;-68
2022/02/20 10:48:19;;;;;;;2.43;0.80;;;;;;;19.00;30.66;100017.84;1720532;82;20954;-68
2022/02/20 10:50:57;;;;;;;2.35;0.70;;;;;;;19.36;30.50;100018.30;1730325;81;20958;-68
2022/02/20 10:53:26;;;;;;;1.77;0.70;;;;;;;19.56;31.06;100019.84;1728559;81;21133;-67
2022/02/20 10:55:53;;;;;;;2.23;1.03;;;;;;;20.08;30.23;100021.98;1678286;81;21684;-67
2022/02/20 10:58:25;;;;;;;2.33;0.97;;;;;;;19.84;29.85;100015.39;1728376;81;21148;-67
2022/02/20 11:00:57;;;;;;;2.97;1.00;;;;;;;19.86;29.63;100018.60;1729449;81;21002;-68
2022/02/20 11:03:28;;;;;;;3.15;1.32;;;;;;;20.28;29.18;100027.17;1719603;81;21098;-70
2022/02/20 11:05:56;;;;;;;2.60;1.20;;;;;;;19.93;29.48;100022.64;1699979;83;21111;-70
2022/02/20 11:08:27;;;;;;;2.53;0.80;;;;;;;19.47;29.46;100019.99;1702377;83;21051;-71
2022/02/20 11:10:54;;;;;;;2.47;0.90;;;;;;;19.12;29.94;100019.05;1674808;84;21117;-69
2022/02/20 11:13:23;;;;;;;3.53;1.13;;;;;;;19.16;30.48;100022.80;1703530;83;21003;-67
2022/02/20 11:15:54;;;;;;;3.10;1.00;;;;;;;19.20;30.46;100023.37;1705832;83;21098;-69
2022/02/20 11:18:24;;;;;;;;;;;;;;;19.48;30.21;100018.97;1706542;83;21584;-71
2022/02/20 11:20:53;;;;;;;3.53;0.97;;;;;;;19.61;30.23;100019.09;1704885;83;20502;-67
2022/02/20 11:23:28;;;;;;;2.80;0.97;;;;;;;19.74;29.79;100109.20;1705668;83;21103;-67
2022/02/20 11:25:57;;;;;;;2.73;0.80;;;;;;;19.23;30.84;100029.23;1677106;84;21057;-68
2022/02/20 11:28:23;;;;;;;2.33;0.80;;;;;;;19.72;30.18;100019.52;1706890;82;21054;-70
2022/02/20 11:30:51;;;;;;;2.43;0.60;;;;;;;20.04;28.77;100018.75;1707430;83;21114;-70
2022/02/20 11:33:18;;;;;;;2.03;0.80;;;;;;;19.81;28.55;100019.36;1706608;83;21050;-66
2022/02/20 11:35:49;;;;;;;1.33;0.67;;;;;;;20.18;28.47;100015.44;1706141;83;21129;-66